Wednesday, November 14, 2018, 1:57 AM EST
Back to Local

KJFK, Kennedy International Airport

Location: Rosedale, NY, United States Lat: 40.633
Local Time: 1:57 AM EST ( 6:57 GMT) Lon: -73.767
Time Zone: US/Eastern Elev: 13 ft

Show me the last for .
Show Decoded

2018-11-14 00:51 METAR KJFK 140551Z 32022G31KT 10SM OVC037 06/M04 A3016 RMK AO2 PK WND 32031/0545
                 SLP213 T00561044 10078 20056 51023 =
2018-11-13 23:51 METAR KJFK 140451Z 30013KT 10SM BKN047 OVC220 07/M01 A3014 RMK AO2 SLP206
                 T00671006 401440061 =
2018-11-13 22:51 METAR KJFK 140351Z 30017G26KT 10SM FEW046 FEW100 OVC240 07/M01 A3012 RMK AO2 PK
                 WND 30026/0345 SLP198 T00671006 =
2018-11-13 21:51 METAR KJFK 140251Z 29014G22KT 10SM FEW042 BKN100 OVC240 07/00 A3009 RMK AO2
                 SLP190 T00720000 53024 =
2018-11-13 20:51 METAR KJFK 140151Z 30018G22KT 10SM FEW037 BKN100 OVC230 07/01 A3007 RMK AO2
                 SLP182 T00720006 =
2018-11-13 19:51 METAR KJFK 140051Z 30015G23KT 10SM FEW034 OVC100 07/01 A3004 RMK AO2 PK WND
                 30026/0007 SLP173 T00720006 =
2018-11-13 18:51 METAR KJFK 132351Z 30021G24KT 10SM FEW033 OVC090 08/02 A3002 RMK AO2 PK WND
                 30029/2328 SLP166 T00780017 10094 20078 51032 =
2018-11-13 17:51 METAR KJFK 132251Z 30017KT 10SM FEW025 OVC090 08/02 A3000 RMK AO2 PK WND
                 31026/2226 SLP158 T00780017 =
2018-11-13 16:51 METAR KJFK 132151Z 32022G26KT 10SM FEW025 OVC085 08/02 A2995 RMK AO2 PK WND
                 32026/2151 SLP143 T00830022 =
2018-11-13 15:51 METAR KJFK 132051Z 30016KT 10SM FEW025 BKN095 OVC160 09/04 A2993 RMK AO2 SLP134
                 T00940044 51032 =
2018-11-13 14:51 METAR KJFK 131951Z 31011KT 10SM FEW020 SCT040 OVC160 09/06 A2989 RMK AO2 SLP122
                 T00940061 =
2018-11-13 14:38 METAR KJFK 131938Z 31013KT 10SM SCT020 SCT040 OVC160 09/06 A2988 RMK AO2
                 T00890061 =
2018-11-13 13:51 METAR KJFK 131851Z 32015KT 10SM BKN017 BKN040 OVC110 09/07 A2987 RMK AO2 PK WND
                 33026/1754 SLP114 T00890067 =
2018-11-13 12:51 METAR KJFK 131751Z 32017G22KT 10SM BKN010 BKN042 OVC110 09/08 A2983 RMK AO2
                 SLP101 CIG 008V012 60052 T00890083 10144 20083 53009 =
2018-11-13 11:51 METAR KJFK 131651Z 33018G23KT 10SM BKN007 OVC019 09/09 A2981 RMK AO2 PK WND
                 33026/1607 RAE44 SLP095 P0000 T00940089 =
2018-11-13 11:28 METAR KJFK 131628Z 33015KT 7SM -RA OVC007 10/10 A2982 RMK AO2 PK WND 33026/1607
                 P0000 T01000100 =
2018-11-13 10:51 METAR KJFK 131551Z 33018KT 2 1/2SM -RA BR BKN005 OVC013 10/10 A2982 RMK AO2 SFC
                 VIS 4 RAE00B17DZB00E17 SLP097 CIG 004V006 P0000 T01000100 =
2018-11-13 10:40 METAR KJFK 131540Z COR 33017KT 2 1/2SM -RA BR OVC005 10/10 A2981 RMK AO2 SFC VIS
                 3 RAE00B17DZB00E17 CIG 004V006 P0000 T01000100 =
2018-11-13 09:51 METAR KJFK 131451Z 00000KT 2SM -RA BR BKN004 OVC009 14/14 A2980 RMK AO2 SFC VIS
                 5 SLP092 P0007 60052 T01440144 56052 =
2018-11-13 08:51 METAR KJFK 131351Z 10007KT 1/2SM R04R/4000V6000FT RA BR BKN004 OVC012 13/13
                 A2984 RMK AO2 SFC VIS 1 3/4 SLP106 P0018 T01330133 =
2018-11-13 07:51 METAR KJFK 131251Z 09011KT 1/2SM R04R/P6000FT RA BR BKN004 OVC023 13/13 A2989
                 RMK AO2 SFC VIS 2 1/2 SLP122 P0027 T01330133 =
2018-11-13 07:26 METAR KJFK 131226Z 08009KT 1/2SM R04R/P6000FT +RA BR BKN004 OVC021 13/13 A2992
                 RMK AO2 SFC VIS 1 1/2 P0018 T01280128 =
2018-11-13 06:51 METAR KJFK 131151Z 08006KT 1/2SM R04R/P6000FT RA BR SCT003 BKN008 OVC015 12/12
                 A2996 RMK AO2 SFC VIS 3 SLP144 P0021 60058 70068 T01220122 10122 20072 58046 =
2018-11-13 06:28 METAR KJFK 131128Z 07004KT 3/4SM R04R/P6000FT RA BR FEW003 BKN006 OVC040 11/11
                 A2998 RMK AO2 SFC VIS 3 P0013 T01110111 =
2018-11-13 05:51 METAR KJFK 131051Z 07004KT 3/4SM R04R/P6000FT RA BR OVC004 11/11 A3002 RMK AO2
                 SFC VIS 3 PRESFR SLP165 P0015 T01060106 =
2018-11-13 04:51 METAR KJFK 130951Z 07005KT 3/4SM R04R/P6000FT RA BR OVC004 09/09 A3006 RMK AO2
                 SFC VIS 4 SLP178 P0005 T00940094 =
2018-11-13 04:47 METAR KJFK 130947Z 06006KT 3/4SM R04R/P6000FT RA BR OVC004 09/09 A3006 RMK AO2
                 SFC VIS 4 P0004 =
2018-11-13 03:51 METAR KJFK 130851Z 05007KT 3SM -RA BR OVC004 08/08 A3009 RMK AO2 SFC VIS 4
                 SLP190 P0005 60017 T00830083 58050 =
2018-11-13 03:31 METAR KJFK 130831Z 04007KT 3SM -RA BR OVC004 08/08 A3011 RMK AO2 SFC VIS 4
                 PRESFR P0003 T00830083 =
2018-11-13 02:51 METAR KJFK 130751Z 03006KT 5SM RA BR OVC006 08/08 A3016 RMK AO2 SLP213 P0006
                 T00830083 =

Support USWX by starting your Amazon purchase here.